sensor_id;sensor_type;location;lat;lon;timestamp;P1;durP1;ratioP1;P2;durP2;ratioP2
3573;SDS011;1801;51.050;6.246;2023-07-13T00:00:46;4.70;;;2.10;;
3573;SDS011;1801;51.050;6.246;2023-07-13T00:03:11;8.80;;;2.03;;
3573;SDS011;1801;51.050;6.246;2023-07-13T00:05:38;5.30;;;2.27;;
3573;SDS011;1801;51.050;6.246;2023-07-13T00:08:03;6.33;;;1.67;;
3573;SDS011;1801;51.050;6.246;2023-07-13T00:10:28;1.80;;;1.70;;
3573;SDS011;1801;51.050;6.246;2023-07-13T00:12:54;8.10;;;2.20;;
3573;SDS011;1801;51.050;6.246;2023-07-13T00:15:21;6.83;;;1.90;;
3573;SDS011;1801;51.050;6.246;2023-07-13T00:17:51;8.83;;;1.90;;
3573;SDS011;1801;51.050;6.246;2023-07-13T00:20:16;7.23;;;1.60;;
3573;SDS011;1801;51.050;6.246;2023-07-13T00:22:42;3.77;;;1.80;;
3573;SDS011;1801;51.050;6.246;2023-07-13T00:25:08;3.03;;;1.90;;
3573;SDS011;1801;51.050;6.246;2023-07-13T00:27:34;5.07;;;2.03;;
3573;SDS011;1801;51.050;6.246;2023-07-13T00:30:00;8.33;;;1.90;;
3573;SDS011;1801;51.050;6.246;2023-07-13T00:32:25;4.30;;;1.70;;
3573;SDS011;1801;51.050;6.246;2023-07-13T00:34:51;4.53;;;1.87;;
3573;SDS011;1801;51.050;6.246;2023-07-13T00:37:16;2.50;;;1.70;;
3573;SDS011;1801;51.050;6.246;2023-07-13T00:39:41;3.53;;;2.00;;
3573;SDS011;1801;51.050;6.246;2023-07-13T00:42:06;4.60;;;1.90;;
3573;SDS011;1801;51.050;6.246;2023-07-13T00:44:32;3.27;;;1.57;;
3573;SDS011;1801;51.050;6.246;2023-07-13T00:50:00;7.93;;;1.70;;
3573;SDS011;1801;51.050;6.246;2023-07-13T00:52:26;9.23;;;3.23;;
3573;SDS011;1801;51.050;6.246;2023-07-13T00:54:51;13.23;;;2.47;;
3573;SDS011;1801;51.050;6.246;2023-07-13T00:57:17;11.50;;;1.53;;
3573;SDS011;1801;51.050;6.246;2023-07-13T00:59:45;2.37;;;1.30;;
3573;SDS011;1801;51.050;6.246;2023-07-13T01:02:11;5.40;;;1.93;;
3573;SDS011;1801;51.050;6.246;2023-07-13T01:04:37;4.10;;;1.90;;
3573;SDS011;1801;51.050;6.246;2023-07-13T01:07:03;13.53;;;1.80;;
3573;SDS011;1801;51.050;6.246;2023-07-13T01:09:28;3.83;;;1.60;;
3573;SDS011;1801;51.050;6.246;2023-07-13T01:11:54;4.87;;;1.20;;
3573;SDS011;1801;51.050;6.246;2023-07-13T01:14:19;5.73;;;2.57;;
3573;SDS011;1801;51.050;6.246;2023-07-13T01:16:45;2.90;;;2.00;;
3573;SDS011;1801;51.050;6.246;2023-07-13T01:19:15;4.00;;;1.83;;
3573;SDS011;1801;51.050;6.246;2023-07-13T01:21:42;12.37;;;2.27;;
3573;SDS011;1801;51.050;6.246;2023-07-13T01:24:08;6.57;;;1.67;;
3573;SDS011;1801;51.050;6.246;2023-07-13T01:26:33;4.57;;;1.37;;
3573;SDS011;1801;51.050;6.246;2023-07-13T01:28:58;6.33;;;2.23;;
3573;SDS011;1801;51.050;6.246;2023-07-13T01:31:23;3.23;;;1.63;;
3573;SDS011;1801;51.050;6.246;2023-07-13T01:33:49;4.10;;;1.70;;
3573;SDS011;1801;51.050;6.246;2023-07-13T01:36:14;3.73;;;1.40;;
3573;SDS011;1801;51.050;6.246;2023-07-13T01:38:39;4.57;;;1.80;;
3573;SDS011;1801;51.050;6.246;2023-07-13T01:41:04;2.53;;;1.80;;
3573;SDS011;1801;51.050;6.246;2023-07-13T01:43:29;3.97;;;1.77;;
3573;SDS011;1801;51.050;6.246;2023-07-13T01:45:55;3.67;;;1.47;;
3573;SDS011;1801;51.050;6.246;2023-07-13T01:48:20;6.00;;;2.10;;
3573;SDS011;1801;51.050;6.246;2023-07-13T01:50:47;4.47;;;1.90;;
3573;SDS011;1801;51.050;6.246;2023-07-13T01:53:12;8.07;;;2.37;;
3573;SDS011;1801;51.050;6.246;2023-07-13T01:55:38;5.23;;;2.33;;
3573;SDS011;1801;51.050;6.246;2023-07-13T01:58:03;4.50;;;1.60;;
3573;SDS011;1801;51.050;6.246;2023-07-13T02:00:28;7.07;;;1.80;;
3573;SDS011;1801;51.050;6.246;2023-07-13T02:02:53;5.47;;;2.00;;
3573;SDS011;1801;51.050;6.246;2023-07-13T02:05:19;4.73;;;1.90;;
3573;SDS011;1801;51.050;6.246;2023-07-13T02:07:44;8.63;;;1.80;;
3573;SDS011;1801;51.050;6.246;2023-07-13T02:10:10;7.83;;;2.20;;
3573;SDS011;1801;51.050;6.246;2023-07-13T02:12:35;4.13;;;1.40;;
3573;SDS011;1801;51.050;6.246;2023-07-13T02:15:01;3.00;;;1.60;;
3573;SDS011;1801;51.050;6.246;2023-07-13T02:17:26;7.00;;;1.90;;
3573;SDS011;1801;51.050;6.246;2023-07-13T02:19:51;5.20;;;1.60;;
3573;SDS011;1801;51.050;6.246;2023-07-13T02:22:16;11.90;;;2.20;;
3573;SDS011;1801;51.050;6.246;2023-07-13T02:24:42;5.80;;;1.77;;
3573;SDS011;1801;51.050;6.246;2023-07-13T02:27:07;7.13;;;1.73;;
3573;SDS011;1801;51.050;6.246;2023-07-13T02:29:32;16.07;;;2.53;;
3573;SDS011;1801;51.050;6.246;2023-07-13T02:31:57;4.73;;;2.00;;
3573;SDS011;1801;51.050;6.246;2023-07-13T02:34:22;6.10;;;2.47;;
3573;SDS011;1801;51.050;6.246;2023-07-13T02:36:48;6.23;;;2.00;;
3573;SDS011;1801;51.050;6.246;2023-07-13T02:39:13;8.90;;;2.17;;
3573;SDS011;1801;51.050;6.246;2023-07-13T02:41:38;2.30;;;1.70;;
3573;SDS011;1801;51.050;6.246;2023-07-13T02:44:03;7.20;;;2.60;;
3573;SDS011;1801;51.050;6.246;2023-07-13T02:46:29;10.43;;;2.73;;
3573;SDS011;1801;51.050;6.246;2023-07-13T02:48:55;5.97;;;1.63;;
3573;SDS011;1801;51.050;6.246;2023-07-13T02:51:20;3.90;;;1.70;;
3573;SDS011;1801;51.050;6.246;2023-07-13T02:53:45;7.70;;;3.00;;
3573;SDS011;1801;51.050;6.246;2023-07-13T02:56:10;4.63;;;1.80;;
3573;SDS011;1801;51.050;6.246;2023-07-13T02:58:35;7.40;;;1.87;;
3573;SDS011;1801;51.050;6.246;2023-07-13T03:01:06;5.33;;;2.20;;
3573;SDS011;1801;51.050;6.246;2023-07-13T03:03:31;7.20;;;1.47;;
3573;SDS011;1801;51.050;6.246;2023-07-13T03:06:00;5.50;;;1.93;;
3573;SDS011;1801;51.050;6.246;2023-07-13T03:08:25;5.10;;;1.90;;
3573;SDS011;1801;51.050;6.246;2023-07-13T03:10:58;6.70;;;2.40;;
3573;SDS011;1801;51.050;6.246;2023-07-13T03:13:24;7.03;;;2.70;;
3573;SDS011;1801;51.050;6.246;2023-07-13T03:15:49;4.10;;;1.87;;
3573;SDS011;1801;51.050;6.246;2023-07-13T03:18:14;7.53;;;1.77;;
3573;SDS011;1801;51.050;6.246;2023-07-13T03:20:39;5.17;;;1.93;;
3573;SDS011;1801;51.050;6.246;2023-07-13T03:23:04;9.03;;;2.47;;
3573;SDS011;1801;51.050;6.246;2023-07-13T03:25:30;3.33;;;1.40;;
3573;SDS011;1801;51.050;6.246;2023-07-13T03:27:55;4.93;;;2.10;;
3573;SDS011;1801;51.050;6.246;2023-07-13T03:30:20;6.80;;;1.90;;
3573;SDS011;1801;51.050;6.246;2023-07-13T03:32:45;2.50;;;1.93;;
3573;SDS011;1801;51.050;6.246;2023-07-13T03:35:10;8.83;;;2.93;;
3573;SDS011;1801;51.050;6.246;2023-07-13T03:37:36;6.00;;;2.00;;
3573;SDS011;1801;51.050;6.246;2023-07-13T03:40:07;3.63;;;2.07;;
3573;SDS011;1801;51.050;6.246;2023-07-13T03:42:34;6.53;;;2.10;;
3573;SDS011;1801;51.050;6.246;2023-07-13T03:44:59;7.73;;;2.50;;
3573;SDS011;1801;51.050;6.246;2023-07-13T03:47:25;14.53;;;2.97;;
3573;SDS011;1801;51.050;6.246;2023-07-13T03:49:50;7.93;;;3.50;;
3573;SDS011;1801;51.050;6.246;2023-07-13T03:52:15;3.90;;;1.70;;
3573;SDS011;1801;51.050;6.246;2023-07-13T03:54:40;9.00;;;2.43;;
3573;SDS011;1801;51.050;6.246;2023-07-13T03:57:05;8.60;;;2.90;;
3573;SDS011;1801;51.050;6.246;2023-07-13T03:59:31;5.10;;;2.00;;
3573;SDS011;1801;51.050;6.246;2023-07-13T04:01:56;3.47;;;1.67;;
3573;SDS011;1801;51.050;6.246;2023-07-13T04:04:21;8.23;;;2.03;;
3573;SDS011;1801;51.050;6.246;2023-07-13T04:06:47;10.13;;;2.60;;
3573;SDS011;1801;51.050;6.246;2023-07-13T04:09:12;10.83;;;2.50;;
3573;SDS011;1801;51.050;6.246;2023-07-13T04:11:37;8.57;;;2.10;;
3573;SDS011;1801;51.050;6.246;2023-07-13T04:14:02;7.20;;;2.07;;
3573;SDS011;1801;51.050;6.246;2023-07-13T04:16:28;8.70;;;2.77;;
3573;SDS011;1801;51.050;6.246;2023-07-13T04:18:53;7.13;;;2.50;;
3573;SDS011;1801;51.050;6.246;2023-07-13T04:21:20;9.10;;;3.27;;
3573;SDS011;1801;51.050;6.246;2023-07-13T04:23:45;10.77;;;2.60;;
3573;SDS011;1801;51.050;6.246;2023-07-13T04:26:10;3.43;;;1.60;;
3573;SDS011;1801;51.050;6.246;2023-07-13T04:28:36;4.80;;;2.30;;
3573;SDS011;1801;51.050;6.246;2023-07-13T04:31:01;10.47;;;3.30;;
3573;SDS011;1801;51.050;6.246;2023-07-13T04:33:27;4.23;;;2.03;;
3573;SDS011;1801;51.050;6.246;2023-07-13T04:35:53;12.93;;;3.87;;
3573;SDS011;1801;51.050;6.246;2023-07-13T04:38:25;6.37;;;2.00;;
3573;SDS011;1801;51.050;6.246;2023-07-13T04:40:50;8.33;;;2.63;;
3573;SDS011;1801;51.050;6.246;2023-07-13T04:43:16;4.27;;;1.90;;
3573;SDS011;1801;51.050;6.246;2023-07-13T04:45:41;10.40;;;2.60;;
3573;SDS011;1801;51.050;6.246;2023-07-13T04:48:06;7.90;;;2.70;;
3573;SDS011;1801;51.050;6.246;2023-07-13T04:50:31;10.60;;;3.00;;
3573;SDS011;1801;51.050;6.246;2023-07-13T04:52:57;7.13;;;2.10;;
3573;SDS011;1801;51.050;6.246;2023-07-13T04:55:23;12.83;;;3.90;;
3573;SDS011;1801;51.050;6.246;2023-07-13T04:57:48;11.90;;;2.70;;
3573;SDS011;1801;51.050;6.246;2023-07-13T05:00:13;4.53;;;2.23;;
3573;SDS011;1801;51.050;6.246;2023-07-13T05:02:40;14.63;;;2.80;;
3573;SDS011;1801;51.050;6.246;2023-07-13T05:05:08;8.13;;;2.77;;
3573;SDS011;1801;51.050;6.246;2023-07-13T05:07:33;8.93;;;4.70;;
3573;SDS011;1801;51.050;6.246;2023-07-13T05:09:59;4.60;;;1.83;;
3573;SDS011;1801;51.050;6.246;2023-07-13T05:12:24;6.63;;;1.90;;
3573;SDS011;1801;51.050;6.246;2023-07-13T05:14:50;6.20;;;2.20;;
3573;SDS011;1801;51.050;6.246;2023-07-13T05:17:15;11.40;;;2.40;;
3573;SDS011;1801;51.050;6.246;2023-07-13T05:19:40;8.87;;;2.80;;
3573;SDS011;1801;51.050;6.246;2023-07-13T05:22:05;6.70;;;2.30;;
3573;SDS011;1801;51.050;6.246;2023-07-13T05:24:30;9.30;;;2.33;;
3573;SDS011;1801;51.050;6.246;2023-07-13T05:26:56;11.10;;;3.33;;
3573;SDS011;1801;51.050;6.246;2023-07-13T05:29:21;9.20;;;2.50;;
3573;SDS011;1801;51.050;6.246;2023-07-13T05:31:47;3.67;;;2.20;;
3573;SDS011;1801;51.050;6.246;2023-07-13T05:34:12;10.50;;;2.40;;
3573;SDS011;1801;51.050;6.246;2023-07-13T05:36:37;8.83;;;3.10;;
3573;SDS011;1801;51.050;6.246;2023-07-13T05:39:03;9.47;;;3.27;;
3573;SDS011;1801;51.050;6.246;2023-07-13T05:41:28;4.77;;;2.40;;
3573;SDS011;1801;51.050;6.246;2023-07-13T05:43:53;4.70;;;2.33;;
3573;SDS011;1801;51.050;6.246;2023-07-13T05:46:18;8.93;;;2.90;;
3573;SDS011;1801;51.050;6.246;2023-07-13T05:48:44;11.10;;;2.77;;
3573;SDS011;1801;51.050;6.246;2023-07-13T05:51:09;8.90;;;3.40;;
3573;SDS011;1801;51.050;6.246;2023-07-13T05:53:34;8.83;;;2.73;;
3573;SDS011;1801;51.050;6.246;2023-07-13T05:56:00;5.77;;;2.83;;
3573;SDS011;1801;51.050;6.246;2023-07-13T05:58:25;15.47;;;3.10;;
3573;SDS011;1801;51.050;6.246;2023-07-13T06:00:57;7.33;;;3.30;;
3573;SDS011;1801;51.050;6.246;2023-07-13T06:03:23;5.77;;;3.10;;
3573;SDS011;1801;51.050;6.246;2023-07-13T06:05:48;9.07;;;3.33;;
3573;SDS011;1801;51.050;6.246;2023-07-13T06:08:13;7.50;;;3.20;;
3573;SDS011;1801;51.050;6.246;2023-07-13T06:10:38;11.20;;;3.53;;
3573;SDS011;1801;51.050;6.246;2023-07-13T06:13:04;10.03;;;3.07;;
3573;SDS011;1801;51.050;6.246;2023-07-13T06:15:29;10.60;;;3.17;;
3573;SDS011;1801;51.050;6.246;2023-07-13T06:17:54;11.27;;;4.00;;
3573;SDS011;1801;51.050;6.246;2023-07-13T06:20:20;8.03;;;3.13;;
3573;SDS011;1801;51.050;6.246;2023-07-13T06:22:45;6.80;;;2.60;;
3573;SDS011;1801;51.050;6.246;2023-07-13T06:25:10;12.13;;;3.30;;
3573;SDS011;1801;51.050;6.246;2023-07-13T06:27:35;7.90;;;2.50;;
3573;SDS011;1801;51.050;6.246;2023-07-13T06:30:00;14.60;;;3.30;;
3573;SDS011;1801;51.050;6.246;2023-07-13T06:32:26;6.80;;;3.03;;
3573;SDS011;1801;51.050;6.246;2023-07-13T06:34:51;5.17;;;2.57;;
3573;SDS011;1801;51.050;6.246;2023-07-13T06:37:19;17.60;;;4.13;;
3573;SDS011;1801;51.050;6.246;2023-07-13T06:39:44;8.67;;;3.23;;
3573;SDS011;1801;51.050;6.246;2023-07-13T06:42:09;10.90;;;4.20;;
3573;SDS011;1801;51.050;6.246;2023-07-13T06:44:35;10.40;;;3.07;;
3573;SDS011;1801;51.050;6.246;2023-07-13T06:47:01;11.47;;;3.50;;
3573;SDS011;1801;51.050;6.246;2023-07-13T06:49:26;7.23;;;2.73;;
3573;SDS011;1801;51.050;6.246;2023-07-13T06:51:51;8.40;;;2.60;;
3573;SDS011;1801;51.050;6.246;2023-07-13T06:54:16;8.60;;;3.73;;
3573;SDS011;1801;51.050;6.246;2023-07-13T06:56:42;8.93;;;3.50;;
3573;SDS011;1801;51.050;6.246;2023-07-13T06:59:07;7.40;;;2.43;;
3573;SDS011;1801;51.050;6.246;2023-07-13T07:01:32;7.60;;;2.80;;
3573;SDS011;1801;51.050;6.246;2023-07-13T07:03:57;14.37;;;3.23;;
3573;SDS011;1801;51.050;6.246;2023-07-13T07:06:22;6.20;;;3.00;;
3573;SDS011;1801;51.050;6.246;2023-07-13T07:08:49;12.20;;;3.30;;
3573;SDS011;1801;51.050;6.246;2023-07-13T07:11:16;7.47;;;3.87;;
3573;SDS011;1801;51.050;6.246;2023-07-13T07:13:41;8.60;;;3.20;;
3573;SDS011;1801;51.050;6.246;2023-07-13T07:16:07;12.07;;;3.50;;
3573;SDS011;1801;51.050;6.246;2023-07-13T07:18:33;9.03;;;3.50;;
3573;SDS011;1801;51.050;6.246;2023-07-13T07:20:58;11.00;;;3.50;;
3573;SDS011;1801;51.050;6.246;2023-07-13T07:23:23;17.57;;;4.20;;
3573;SDS011;1801;51.050;6.246;2023-07-13T07:25:48;13.10;;;4.50;;
3573;SDS011;1801;51.050;6.246;2023-07-13T07:28:15;10.13;;;3.70;;
3573;SDS011;1801;51.050;6.246;2023-07-13T07:30:42;16.17;;;6.20;;
3573;SDS011;1801;51.050;6.246;2023-07-13T07:33:08;20.37;;;4.27;;
3573;SDS011;1801;51.050;6.246;2023-07-13T07:35:33;11.80;;;5.37;;
3573;SDS011;1801;51.050;6.246;2023-07-13T07:37:59;17.60;;;4.40;;
3573;SDS011;1801;51.050;6.246;2023-07-13T07:40:24;10.60;;;3.90;;
3573;SDS011;1801;51.050;6.246;2023-07-13T07:42:49;11.97;;;4.23;;
3573;SDS011;1801;51.050;6.246;2023-07-13T07:45:14;15.37;;;4.40;;
3573;SDS011;1801;51.050;6.246;2023-07-13T07:47:39;14.70;;;4.10;;
3573;SDS011;1801;51.050;6.246;2023-07-13T07:50:05;10.93;;;4.03;;
3573;SDS011;1801;51.050;6.246;2023-07-13T07:52:30;12.00;;;4.10;;
3573;SDS011;1801;51.050;6.246;2023-07-13T07:54:55;14.33;;;3.97;;
3573;SDS011;1801;51.050;6.246;2023-07-13T07:57:21;12.93;;;4.10;;
3573;SDS011;1801;51.050;6.246;2023-07-13T07:59:46;13.70;;;3.90;;
3573;SDS011;1801;51.050;6.246;2023-07-13T08:02:11;9.20;;;3.97;;
3573;SDS011;1801;51.050;6.246;2023-07-13T08:04:36;8.07;;;3.67;;
3573;SDS011;1801;51.050;6.246;2023-07-13T08:07:01;12.90;;;4.20;;
3573;SDS011;1801;51.050;6.246;2023-07-13T08:09:28;5.20;;;4.03;;
3573;SDS011;1801;51.050;6.246;2023-07-13T08:11:53;7.90;;;3.77;;
3573;SDS011;1801;51.050;6.246;2023-07-13T08:14:19;8.77;;;3.97;;
3573;SDS011;1801;51.050;6.246;2023-07-13T08:16:44;5.20;;;3.60;;
3573;SDS011;1801;51.050;6.246;2023-07-13T08:19:10;7.53;;;4.00;;
3573;SDS011;1801;51.050;6.246;2023-07-13T08:21:36;5.07;;;3.07;;
3573;SDS011;1801;51.050;6.246;2023-07-13T08:24:02;14.27;;;3.90;;
3573;SDS011;1801;51.050;6.246;2023-07-13T08:26:27;5.93;;;2.67;;
3573;SDS011;1801;51.050;6.246;2023-07-13T08:28:52;11.73;;;5.30;;
3573;SDS011;1801;51.050;6.246;2023-07-13T08:31:17;9.97;;;3.80;;
3573;SDS011;1801;51.050;6.246;2023-07-13T08:33:42;7.37;;;3.60;;
3573;SDS011;1801;51.050;6.246;2023-07-13T08:36:08;9.37;;;3.07;;
3573;SDS011;1801;51.050;6.246;2023-07-13T08:38:33;5.30;;;2.47;;
3573;SDS011;1801;51.050;6.246;2023-07-13T08:40:58;9.33;;;3.47;;
3573;SDS011;1801;51.050;6.246;2023-07-13T08:43:28;8.40;;;2.60;;
3573;SDS011;1801;51.050;6.246;2023-07-13T08:46:03;18.17;;;3.17;;
3573;SDS011;1801;51.050;6.246;2023-07-13T08:48:37;6.20;;;3.00;;
3573;SDS011;1801;51.050;6.246;2023-07-13T08:53:49;5.80;;;2.77;;
3573;SDS011;1801;51.050;6.246;2023-07-13T08:56:16;10.50;;;3.40;;
3573;SDS011;1801;51.050;6.246;2023-07-13T08:58:43;7.60;;;3.00;;
3573;SDS011;1801;51.050;6.246;2023-07-13T09:01:23;10.87;;;3.60;;
3573;SDS011;1801;51.050;6.246;2023-07-13T09:03:52;10.70;;;2.90;;
3573;SDS011;1801;51.050;6.246;2023-07-13T09:06:23;12.13;;;3.33;;
3573;SDS011;1801;51.050;6.246;2023-07-13T09:08:57;9.80;;;2.90;;
3573;SDS011;1801;51.050;6.246;2023-07-13T09:16:39;6.87;;;3.30;;
3573;SDS011;1801;51.050;6.246;2023-07-13T09:19:05;8.17;;;2.77;;
3573;SDS011;1801;51.050;6.246;2023-07-13T09:21:32;12.90;;;3.30;;
3573;SDS011;1801;51.050;6.246;2023-07-13T09:24:06;10.70;;;2.93;;
3573;SDS011;1801;51.050;6.246;2023-07-13T09:26:41;7.10;;;3.07;;
3573;SDS011;1801;51.050;6.246;2023-07-13T09:29:10;14.20;;;3.40;;
3573;SDS011;1801;51.050;6.246;2023-07-13T09:31:44;15.20;;;3.60;;
3573;SDS011;1801;51.050;6.246;2023-07-13T09:34:12;8.63;;;2.80;;
3573;SDS011;1801;51.050;6.246;2023-07-13T09:36:38;5.50;;;2.87;;
3573;SDS011;1801;51.050;6.246;2023-07-13T09:44:16;5.00;;;2.47;;
3573;SDS011;1801;51.050;6.246;2023-07-13T09:46:52;12.93;;;4.60;;
3573;SDS011;1801;51.050;6.246;2023-07-13T09:49:18;9.93;;;2.53;;
3573;SDS011;1801;51.050;6.246;2023-07-13T09:51:43;10.63;;;3.17;;
3573;SDS011;1801;51.050;6.246;2023-07-13T09:54:19;3.93;;;2.53;;
3573;SDS011;1801;51.050;6.246;2023-07-13T09:56:45;4.50;;;2.30;;
3573;SDS011;1801;51.050;6.246;2023-07-13T09:59:20;7.40;;;2.87;;
3573;SDS011;1801;51.050;6.246;2023-07-13T10:01:46;15.03;;;3.23;;
3573;SDS011;1801;51.050;6.246;2023-07-13T10:04:13;5.33;;;2.90;;
3573;SDS011;1801;51.050;6.246;2023-07-13T10:06:39;11.80;;;3.30;;
3573;SDS011;1801;51.050;6.246;2023-07-13T10:09:08;6.70;;;2.33;;
3573;SDS011;1801;51.050;6.246;2023-07-13T10:11:34;11.73;;;3.43;;
3573;SDS011;1801;51.050;6.246;2023-07-13T10:14:00;20.53;;;3.37;;
3573;SDS011;1801;51.050;6.246;2023-07-13T10:16:31;3.97;;;2.20;;
3573;SDS011;1801;51.050;6.246;2023-07-13T10:18:58;5.70;;;1.93;;
3573;SDS011;1801;51.050;6.246;2023-07-13T10:21:49;9.90;;;2.70;;
3573;SDS011;1801;51.050;6.246;2023-07-13T10:24:24;7.40;;;2.53;;
3573;SDS011;1801;51.050;6.246;2023-07-13T10:26:52;5.20;;;2.40;;
3573;SDS011;1801;51.050;6.246;2023-07-13T10:29:18;11.23;;;2.97;;
3573;SDS011;1801;51.050;6.246;2023-07-13T10:31:44;5.50;;;2.30;;
3573;SDS011;1801;51.050;6.246;2023-07-13T10:34:10;5.13;;;1.90;;
3573;SDS011;1801;51.050;6.246;2023-07-13T10:36:40;7.37;;;2.77;;
3573;SDS011;1801;51.050;6.246;2023-07-13T10:39:10;6.17;;;1.77;;
3573;SDS011;1801;51.050;6.246;2023-07-13T10:41:39;3.60;;;1.87;;
3573;SDS011;1801;51.050;6.246;2023-07-13T10:44:07;5.70;;;2.40;;
3573;SDS011;1801;51.050;6.246;2023-07-13T10:46:38;4.07;;;2.03;;
3573;SDS011;1801;51.050;6.246;2023-07-13T10:49:05;3.57;;;1.73;;
3573;SDS011;1801;51.050;6.246;2023-07-13T10:51:31;6.13;;;1.93;;
3573;SDS011;1801;51.050;6.246;2023-07-13T10:54:16;8.50;;;2.57;;
3573;SDS011;1801;51.050;6.246;2023-07-13T10:56:42;5.10;;;2.03;;
3573;SDS011;1801;51.050;6.246;2023-07-13T10:59:24;5.73;;;2.10;;
3573;SDS011;1801;51.050;6.246;2023-07-13T11:01:58;5.17;;;2.00;;
3573;SDS011;1801;51.050;6.246;2023-07-13T11:04:25;8.97;;;2.13;;
3573;SDS011;1801;51.050;6.246;2023-07-13T11:06:52;5.90;;;2.17;;
3573;SDS011;1801;51.050;6.246;2023-07-13T11:12:06;5.60;;;2.20;;
3573;SDS011;1801;51.050;6.246;2023-07-13T11:14:35;2.53;;;1.60;;
3573;SDS011;1801;51.050;6.246;2023-07-13T11:17:49;4.87;;;2.13;;
3573;SDS011;1801;51.050;6.246;2023-07-13T11:19:50;4.90;;;2.53;;
3573;SDS011;1801;51.050;6.246;2023-07-13T11:22:19;5.60;;;1.77;;
3573;SDS011;1801;51.050;6.246;2023-07-13T11:27:18;8.53;;;1.67;;
3573;SDS011;1801;51.050;6.246;2023-07-13T11:29:46;9.43;;;3.10;;
3573;SDS011;1801;51.050;6.246;2023-07-13T11:32:31;10.67;;;2.33;;
3573;SDS011;1801;51.050;6.246;2023-07-13T11:34:56;8.10;;;2.80;;
3573;SDS011;1801;51.050;6.246;2023-07-13T11:37:22;9.77;;;2.93;;
3573;SDS011;1801;51.050;6.246;2023-07-13T11:39:48;18.20;;;2.00;;
3573;SDS011;1801;51.050;6.246;2023-07-13T11:42:16;3.80;;;2.17;;
3573;SDS011;1801;51.050;6.246;2023-07-13T11:44:52;9.57;;;2.47;;
3573;SDS011;1801;51.050;6.246;2023-07-13T11:47:19;9.63;;;2.37;;
3573;SDS011;1801;51.050;6.246;2023-07-13T11:49:49;4.33;;;1.80;;
3573;SDS011;1801;51.050;6.246;2023-07-13T11:52:17;4.30;;;1.60;;
3573;SDS011;1801;51.050;6.246;2023-07-13T11:54:46;8.80;;;2.43;;
3573;SDS011;1801;51.050;6.246;2023-07-13T11:59:40;6.20;;;1.88;;
3573;SDS011;1801;51.050;6.246;2023-07-13T12:02:16;2.80;;;1.90;;
3573;SDS011;1801;51.050;6.246;2023-07-13T12:04:42;8.03;;;2.53;;
3573;SDS011;1801;51.050;6.246;2023-07-13T12:07:14;5.60;;;1.80;;
3573;SDS011;1801;51.050;6.246;2023-07-13T12:09:40;2.67;;;1.83;;
3573;SDS011;1801;51.050;6.246;2023-07-13T12:12:10;5.30;;;2.03;;
3573;SDS011;1801;51.050;6.246;2023-07-13T12:14:35;9.20;;;2.20;;
3573;SDS011;1801;51.050;6.246;2023-07-13T12:17:00;1.67;;;1.53;;
3573;SDS011;1801;51.050;6.246;2023-07-13T12:19:26;4.40;;;1.77;;
3573;SDS011;1801;51.050;6.246;2023-07-13T12:21:54;4.87;;;1.80;;
3573;SDS011;1801;51.050;6.246;2023-07-13T12:24:20;4.13;;;1.80;;
3573;SDS011;1801;51.050;6.246;2023-07-13T12:26:51;6.03;;;1.77;;
3573;SDS011;1801;51.050;6.246;2023-07-13T12:29:16;7.33;;;2.60;;
3573;SDS011;1801;51.050;6.246;2023-07-13T12:31:43;7.13;;;2.70;;
3573;SDS011;1801;51.050;6.246;2023-07-13T12:34:13;4.27;;;2.30;;
3573;SDS011;1801;51.050;6.246;2023-07-13T12:36:46;2.93;;;2.07;;
3573;SDS011;1801;51.050;6.246;2023-07-13T12:39:19;3.77;;;2.03;;
3573;SDS011;1801;51.050;6.246;2023-07-13T12:41:44;7.27;;;2.17;;
3573;SDS011;1801;51.050;6.246;2023-07-13T12:44:17;4.90;;;1.80;;
3573;SDS011;1801;51.050;6.246;2023-07-13T12:46:52;5.27;;;2.53;;
3573;SDS011;1801;51.050;6.246;2023-07-13T12:49:18;4.77;;;1.90;;
3573;SDS011;1801;51.050;6.246;2023-07-13T12:51:49;4.57;;;1.80;;
3573;SDS011;1801;51.050;6.246;2023-07-13T12:54:18;3.90;;;1.87;;
3573;SDS011;1801;51.050;6.246;2023-07-13T12:56:44;4.93;;;2.03;;
3573;SDS011;1801;51.050;6.246;2023-07-13T12:59:11;7.23;;;1.93;;
3573;SDS011;1801;51.050;6.246;2023-07-13T13:01:40;6.83;;;2.13;;
3573;SDS011;1801;51.050;6.246;2023-07-13T13:04:08;5.40;;;2.00;;
3573;SDS011;1801;51.050;6.246;2023-07-13T13:06:36;5.30;;;1.73;;
3573;SDS011;1801;51.050;6.246;2023-07-13T13:09:02;5.53;;;1.90;;
3573;SDS011;1801;51.050;6.246;2023-07-13T13:11:29;5.40;;;2.43;;
3573;SDS011;1801;51.050;6.246;2023-07-13T13:13:54;8.03;;;2.23;;
3573;SDS011;1801;51.050;6.246;2023-07-13T13:18:51;6.23;;;1.80;;
3573;SDS011;1801;51.050;6.246;2023-07-13T13:21:17;8.20;;;1.63;;
3573;SDS011;1801;51.050;6.246;2023-07-13T13:23:43;5.10;;;1.80;;
3573;SDS011;1801;51.050;6.246;2023-07-13T13:26:10;9.17;;;2.63;;
3573;SDS011;1801;51.050;6.246;2023-07-13T13:28:36;9.20;;;3.13;;
3573;SDS011;1801;51.050;6.246;2023-07-13T13:31:01;3.63;;;2.03;;
3573;SDS011;1801;51.050;6.246;2023-07-13T13:33:26;4.97;;;2.20;;
3573;SDS011;1801;51.050;6.246;2023-07-13T13:35:51;7.27;;;2.20;;
3573;SDS011;1801;51.050;6.246;2023-07-13T13:38:17;5.10;;;1.70;;
3573;SDS011;1801;51.050;6.246;2023-07-13T13:40:44;4.63;;;2.77;;
3573;SDS011;1801;51.050;6.246;2023-07-13T13:43:25;6.10;;;2.10;;
3573;SDS011;1801;51.050;6.246;2023-07-13T13:45:52;4.10;;;2.27;;
3573;SDS011;1801;51.050;6.246;2023-07-13T13:48:18;2.90;;;2.07;;
3573;SDS011;1801;51.050;6.246;2023-07-13T13:50:43;4.80;;;2.53;;
3573;SDS011;1801;51.050;6.246;2023-07-13T13:53:10;6.47;;;2.37;;
3573;SDS011;1801;51.050;6.246;2023-07-13T13:55:36;4.03;;;2.00;;
3573;SDS011;1801;51.050;6.246;2023-07-13T13:58:02;5.10;;;2.43;;
3573;SDS011;1801;51.050;6.246;2023-07-13T14:00:27;5.33;;;1.97;;
3573;SDS011;1801;51.050;6.246;2023-07-13T14:02:52;5.10;;;2.33;;
3573;SDS011;1801;51.050;6.246;2023-07-13T14:05:23;7.53;;;2.30;;
3573;SDS011;1801;51.050;6.246;2023-07-13T14:07:51;6.07;;;2.10;;
3573;SDS011;1801;51.050;6.246;2023-07-13T14:10:17;4.03;;;1.93;;
3573;SDS011;1801;51.050;6.246;2023-07-13T14:12:43;8.73;;;3.10;;
3573;SDS011;1801;51.050;6.246;2023-07-13T14:15:17;3.03;;;1.90;;
3573;SDS011;1801;51.050;6.246;2023-07-13T14:17:43;9.27;;;2.33;;
3573;SDS011;1801;51.050;6.246;2023-07-13T14:20:12;6.87;;;2.00;;
3573;SDS011;1801;51.050;6.246;2023-07-13T14:22:37;5.37;;;2.30;;
3573;SDS011;1801;51.050;6.246;2023-07-13T14:25:03;3.67;;;1.57;;
3573;SDS011;1801;51.050;6.246;2023-07-13T14:27:28;4.90;;;2.90;;
3573;SDS011;1801;51.050;6.246;2023-07-13T14:29:53;4.83;;;2.07;;
3573;SDS011;1801;51.050;6.246;2023-07-13T14:32:18;3.00;;;1.70;;
3573;SDS011;1801;51.050;6.246;2023-07-13T14:34:44;8.00;;;2.03;;
3573;SDS011;1801;51.050;6.246;2023-07-13T14:37:13;3.27;;;2.13;;
3573;SDS011;1801;51.050;6.246;2023-07-13T14:39:39;6.20;;;1.77;;
3573;SDS011;1801;51.050;6.246;2023-07-13T14:42:05;4.60;;;2.67;;
3573;SDS011;1801;51.050;6.246;2023-07-13T14:44:31;6.80;;;2.30;;
3573;SDS011;1801;51.050;6.246;2023-07-13T14:46:57;6.43;;;2.77;;
3573;SDS011;1801;51.050;6.246;2023-07-13T14:49:28;4.80;;;2.77;;
3573;SDS011;1801;51.050;6.246;2023-07-13T14:51:55;3.40;;;2.20;;
3573;SDS011;1801;51.050;6.246;2023-07-13T14:54:22;6.40;;;2.80;;
3573;SDS011;1801;51.050;6.246;2023-07-13T14:56:47;4.53;;;3.03;;
3573;SDS011;1801;51.050;6.246;2023-07-13T14:59:13;6.00;;;4.03;;
3573;SDS011;1801;51.050;6.246;2023-07-13T15:01:38;14.73;;;3.50;;
3573;SDS011;1801;51.050;6.246;2023-07-13T15:04:04;13.07;;;2.93;;
3573;SDS011;1801;51.050;6.246;2023-07-13T15:06:29;8.73;;;2.40;;
3573;SDS011;1801;51.050;6.246;2023-07-13T15:08:56;2.33;;;1.90;;
3573;SDS011;1801;51.050;6.246;2023-07-13T15:11:21;3.27;;;2.20;;
3573;SDS011;1801;51.050;6.246;2023-07-13T15:13:46;13.33;;;2.77;;
3573;SDS011;1801;51.050;6.246;2023-07-13T15:16:18;3.47;;;1.67;;
3573;SDS011;1801;51.050;6.246;2023-07-13T15:18:44;4.83;;;1.63;;
3573;SDS011;1801;51.050;6.246;2023-07-13T15:21:11;3.10;;;2.03;;
3573;SDS011;1801;51.050;6.246;2023-07-13T15:23:39;4.40;;;1.50;;
3573;SDS011;1801;51.050;6.246;2023-07-13T15:26:04;4.33;;;2.07;;
3573;SDS011;1801;51.050;6.246;2023-07-13T15:28:29;4.00;;;1.70;;
3573;SDS011;1801;51.050;6.246;2023-07-13T15:30:55;3.77;;;2.03;;
3573;SDS011;1801;51.050;6.246;2023-07-13T15:35:47;5.33;;;1.90;;
3573;SDS011;1801;51.050;6.246;2023-07-13T15:38:23;7.17;;;2.17;;